sensor_id;sensor_type;location;lat;lon;timestamp;pressure;altitude;pressure_sealevel;temperature;humidity
35443;BME280;21561;55.654;37.592;2022-11-15T00:00:51;99888.22;;;-1.09;53.05
35443;BME280;21561;55.654;37.592;2022-11-15T00:03:20;99892.44;;;-1.09;53.08
35443;BME280;21561;55.654;37.592;2022-11-15T00:05:48;99901.63;;;-1.13;53.55
35443;BME280;21561;55.654;37.592;2022-11-15T00:08:15;99920.31;;;-1.12;54.17
35443;BME280;21561;55.654;37.592;2022-11-15T00:10:43;99913.53;;;-1.12;53.87
35443;BME280;21561;55.654;37.592;2022-11-15T00:13:19;99927.97;;;-1.12;54.27
35443;BME280;21561;55.654;37.592;2022-11-15T00:15:46;99932.22;;;-1.11;54.25
35443;BME280;21561;55.654;37.592;2022-11-15T00:18:14;99939.94;;;-1.10;54.48
35443;BME280;21561;55.654;37.592;2022-11-15T00:20:41;99915.28;;;-1.11;54.00
35443;BME280;21561;55.654;37.592;2022-11-15T00:23:08;99924.56;;;-1.13;54.06
35443;BME280;21561;55.654;37.592;2022-11-15T00:25:35;99906.84;;;-1.10;53.73
35443;BME280;21561;55.654;37.592;2022-11-15T00:28:02;99908.44;;;-1.12;53.96
35443;BME280;21561;55.654;37.592;2022-11-15T00:30:30;99910.06;;;-1.14;54.20
35443;BME280;21561;55.654;37.592;2022-11-15T00:33:01;99913.69;;;-1.09;54.25
35443;BME280;21561;55.654;37.592;2022-11-15T00:35:31;99917.03;;;-1.10;54.46
35443;BME280;21561;55.654;37.592;2022-11-15T00:37:58;99908.50;;;-1.10;54.33
35443;BME280;21561;55.654;37.592;2022-11-15T00:40:25;99928.03;;;-1.11;54.69
35443;BME280;21561;55.654;37.592;2022-11-15T00:42:51;99929.75;;;-1.10;54.78
35443;BME280;21561;55.654;37.592;2022-11-15T00:45:18;99930.44;;;-1.14;54.96
35443;BME280;21561;55.654;37.592;2022-11-15T00:47:45;99951.41;;;-1.20;55.46
35443;BME280;21561;55.654;37.592;2022-11-15T00:50:13;99935.13;;;-1.23;55.44
35443;BME280;21561;55.654;37.592;2022-11-15T00:52:41;99940.28;;;-1.22;55.13
35443;BME280;21561;55.654;37.592;2022-11-15T00:55:14;99928.28;;;-1.24;54.92
35443;BME280;21561;55.654;37.592;2022-11-15T00:57:41;99917.69;;;-1.33;55.04
35443;BME280;21561;55.654;37.592;2022-11-15T01:00:09;99915.06;;;-1.35;55.07
35443;BME280;21561;55.654;37.592;2022-11-15T01:02:36;99936.03;;;-1.41;55.54
35443;BME280;21561;55.654;37.592;2022-11-15T01:05:03;99943.41;;;-1.47;55.91
35443;BME280;21561;55.654;37.592;2022-11-15T01:07:30;99942.56;;;-1.46;56.06
35443;BME280;21561;55.654;37.592;2022-11-15T01:09:57;99943.66;;;-1.41;56.11
35443;BME280;21561;55.654;37.592;2022-11-15T01:12:24;99959.25;;;-1.35;56.46
35443;BME280;21561;55.654;37.592;2022-11-15T01:14:51;99941.53;;;-1.31;55.59
35443;BME280;21561;55.654;37.592;2022-11-15T01:17:18;99924.53;;;-1.32;55.33
35443;BME280;21561;55.654;37.592;2022-11-15T01:19:52;99913.03;;;-1.42;55.35
35443;BME280;21561;55.654;37.592;2022-11-15T01:22:19;99921.34;;;-1.46;55.42
35443;BME280;21561;55.654;37.592;2022-11-15T01:24:46;99937.38;;;-1.49;55.87
35443;BME280;21561;55.654;37.592;2022-11-15T01:27:13;99923.56;;;-1.54;55.80
35443;BME280;21561;55.654;37.592;2022-11-15T01:29:40;99925.00;;;-1.59;55.85
35443;BME280;21561;55.654;37.592;2022-11-15T01:32:06;99922.53;;;-1.58;55.94
35443;BME280;21561;55.654;37.592;2022-11-15T01:34:33;99921.09;;;-1.52;56.07
35443;BME280;21561;55.654;37.592;2022-11-15T01:37:00;99905.84;;;-1.51;55.71
35443;BME280;21561;55.654;37.592;2022-11-15T01:39:27;99898.38;;;-1.48;55.67
35443;BME280;21561;55.654;37.592;2022-11-15T01:41:55;99894.88;;;-1.50;55.67
35443;BME280;21561;55.654;37.592;2022-11-15T01:47:04;99911.69;;;-1.54;56.13
35443;BME280;21561;55.654;37.592;2022-11-15T01:49:33;99910.69;;;-1.57;56.03
35443;BME280;21561;55.654;37.592;2022-11-15T01:52:03;99931.19;;;-1.54;56.42
35443;BME280;21561;55.654;37.592;2022-11-15T01:54:32;99911.53;;;-1.57;56.04
35443;BME280;21561;55.654;37.592;2022-11-15T01:57:06;99901.19;;;-1.61;55.78
35443;BME280;21561;55.654;37.592;2022-11-15T01:59:37;99906.63;;;-1.71;56.00
35443;BME280;21561;55.654;37.592;2022-11-15T02:02:04;99925.19;;;-1.74;56.38
35443;BME280;21561;55.654;37.592;2022-11-15T02:04:34;99946.41;;;-1.74;57.22
35443;BME280;21561;55.654;37.592;2022-11-15T02:07:04;99953.22;;;-1.73;57.33
35443;BME280;21561;55.654;37.592;2022-11-15T02:09:31;99944.00;;;-1.70;57.54
35443;BME280;21561;55.654;37.592;2022-11-15T02:11:58;99974.47;;;-1.72;58.50
35443;BME280;21561;55.654;37.592;2022-11-15T02:14:27;100004.09;;;-1.73;59.07
35443;BME280;21561;55.654;37.592;2022-11-15T02:17:18;100018.44;;;-1.75;59.60
35443;BME280;21561;55.654;37.592;2022-11-15T02:32:12;99967.78;;;-1.70;61.00
35443;BME280;21561;55.654;37.592;2022-11-15T02:37:34;99946.91;;;-1.63;61.05
35443;BME280;21561;55.654;37.592;2022-11-15T02:40:14;99937.59;;;-1.62;60.89
35443;BME280;21561;55.654;37.592;2022-11-15T02:42:52;99934.25;;;-1.61;60.73
35443;BME280;21561;55.654;37.592;2022-11-15T02:45:46;99924.00;;;-1.63;60.73
35443;BME280;21561;55.654;37.592;2022-11-15T02:48:15;99927.22;;;-1.67;61.05
35443;BME280;21561;55.654;37.592;2022-11-15T02:50:43;99922.56;;;-1.76;60.99
35443;BME280;21561;55.654;37.592;2022-11-15T02:53:11;99920.81;;;-1.77;61.14
35443;BME280;21561;55.654;37.592;2022-11-15T02:55:51;99906.50;;;-1.75;61.16
35443;BME280;21561;55.654;37.592;2022-11-15T03:11:39;99878.34;;;-1.78;60.11
35443;BME280;21561;55.654;37.592;2022-11-15T03:17:29;99887.84;;;-1.93;60.60
35443;BME280;21561;55.654;37.592;2022-11-15T03:19:59;99896.63;;;-2.04;61.15
35443;BME280;21561;55.654;37.592;2022-11-15T03:22:33;99895.81;;;-2.03;61.52
35443;BME280;21561;55.654;37.592;2022-11-15T03:25:06;99888.03;;;-2.06;61.65
35443;BME280;21561;55.654;37.592;2022-11-15T03:27:36;99864.63;;;-1.99;61.34
35443;BME280;21561;55.654;37.592;2022-11-15T03:30:06;99851.81;;;-2.02;60.95
35443;BME280;21561;55.654;37.592;2022-11-15T03:32:48;99873.75;;;-2.04;61.54
35443;BME280;21561;55.654;37.592;2022-11-15T03:35:27;99870.41;;;-2.03;61.05
35443;BME280;21561;55.654;37.592;2022-11-15T03:40:42;99878.84;;;-2.04;61.37
35443;BME280;21561;55.654;37.592;2022-11-15T03:46:07;99873.44;;;-2.11;61.11
35443;BME280;21561;55.654;37.592;2022-11-15T03:48:49;99849.91;;;-2.06;60.64
35443;BME280;21561;55.654;37.592;2022-11-15T03:51:19;99858.78;;;-2.16;60.45
35443;BME280;21561;55.654;37.592;2022-11-15T03:53:46;99858.78;;;-2.16;60.62
35443;BME280;21561;55.654;37.592;2022-11-15T03:56:13;99861.41;;;-2.15;60.88
35443;BME280;21561;55.654;37.592;2022-11-15T03:58:40;99836.13;;;-2.12;60.03
35443;BME280;21561;55.654;37.592;2022-11-15T04:01:07;99847.94;;;-2.12;60.28
35443;BME280;21561;55.654;37.592;2022-11-15T04:03:34;99829.22;;;-2.14;59.41
35443;BME280;21561;55.654;37.592;2022-11-15T04:06:00;99836.69;;;-2.17;59.71
35443;BME280;21561;55.654;37.592;2022-11-15T04:08:27;99835.81;;;-2.18;59.66
35443;BME280;21561;55.654;37.592;2022-11-15T04:10:54;99842.66;;;-2.17;59.77
35443;BME280;21561;55.654;37.592;2022-11-15T04:13:21;99851.06;;;-2.18;60.13
35443;BME280;21561;55.654;37.592;2022-11-15T04:15:48;99845.06;;;-2.20;60.10
35443;BME280;21561;55.654;37.592;2022-11-15T04:18:15;99848.38;;;-2.21;60.11
35443;BME280;21561;55.654;37.592;2022-11-15T04:20:42;99843.38;;;-2.19;60.11
35443;BME280;21561;55.654;37.592;2022-11-15T04:23:27;99845.91;;;-2.19;60.56
35443;BME280;21561;55.654;37.592;2022-11-15T04:26:17;99846.94;;;-2.16;60.20
35443;BME280;21561;55.654;37.592;2022-11-15T04:28:45;99852.00;;;-2.16;60.54
35443;BME280;21561;55.654;37.592;2022-11-15T04:31:30;99852.69;;;-2.20;60.44
35443;BME280;21561;55.654;37.592;2022-11-15T04:33:57;99845.84;;;-2.21;60.47
35443;BME280;21561;55.654;37.592;2022-11-15T04:36:24;99839.03;;;-2.22;60.37
35443;BME280;21561;55.654;37.592;2022-11-15T04:39:10;99840.91;;;-2.18;60.48
35443;BME280;21561;55.654;37.592;2022-11-15T04:41:36;99840.91;;;-2.18;60.59
35443;BME280;21561;55.654;37.592;2022-11-15T04:44:03;99840.75;;;-2.21;61.09
35443;BME280;21561;55.654;37.592;2022-11-15T04:46:30;99842.16;;;-2.27;60.93
35443;BME280;21561;55.654;37.592;2022-11-15T04:48:57;99831.09;;;-2.28;61.27
35443;BME280;21561;55.654;37.592;2022-11-15T04:51:25;99833.78;;;-2.25;61.31
35443;BME280;21561;55.654;37.592;2022-11-15T04:53:53;99828.72;;;-2.25;61.45
35443;BME280;21561;55.654;37.592;2022-11-15T04:56:20;99837.16;;;-2.26;61.74
35443;BME280;21561;55.654;37.592;2022-11-15T04:58:49;99842.09;;;-2.29;62.02
35443;BME280;21561;55.654;37.592;2022-11-15T05:01:17;99833.63;;;-2.28;61.98
35443;BME280;21561;55.654;37.592;2022-11-15T05:03:44;99834.81;;;-2.21;62.00
35443;BME280;21561;55.654;37.592;2022-11-15T05:06:30;99828.88;;;-2.22;61.87
35443;BME280;21561;55.654;37.592;2022-11-15T05:08:57;99833.94;;;-2.22;62.00
35443;BME280;21561;55.654;37.592;2022-11-15T05:11:25;99818.84;;;-2.19;61.59
35443;BME280;21561;55.654;37.592;2022-11-15T05:13:53;99817.34;;;-2.14;61.83
35443;BME280;21561;55.654;37.592;2022-11-15T05:16:20;99806.47;;;-2.11;61.81
35443;BME280;21561;55.654;37.592;2022-11-15T05:18:46;99824.47;;;-2.06;61.95
35443;BME280;21561;55.654;37.592;2022-11-15T05:21:16;99806.63;;;-2.08;61.48
35443;BME280;21561;55.654;37.592;2022-11-15T05:23:43;99808.19;;;-2.10;61.30
35443;BME280;21561;55.654;37.592;2022-11-15T05:26:10;99811.63;;;-2.09;61.59
35443;BME280;21561;55.654;37.592;2022-11-15T05:28:38;99820.06;;;-2.11;61.63
35443;BME280;21561;55.654;37.592;2022-11-15T05:31:10;99814.38;;;-2.05;61.44
35443;BME280;21561;55.654;37.592;2022-11-15T05:33:41;99819.69;;;-2.00;62.22
35443;BME280;21561;55.654;37.592;2022-11-15T05:36:34;99801.34;;;-1.93;61.47
35443;BME280;21561;55.654;37.592;2022-11-15T05:39:04;99795.34;;;-1.95;61.50
35443;BME280;21561;55.654;37.592;2022-11-15T05:44:31;99796.34;;;-1.92;61.01
35443;BME280;21561;55.654;37.592;2022-11-15T05:46:58;99781.69;;;-1.97;60.34
35443;BME280;21561;55.654;37.592;2022-11-15T05:49:30;99789.31;;;-1.97;60.83
35443;BME280;21561;55.654;37.592;2022-11-15T05:51:58;99792.38;;;-2.04;60.82
35443;BME280;21561;55.654;37.592;2022-11-15T05:54:25;99787.00;;;-2.11;61.08
35443;BME280;21561;55.654;37.592;2022-11-15T05:56:53;99787.00;;;-2.11;61.17
35443;BME280;21561;55.654;37.592;2022-11-15T05:59:20;99783.75;;;-2.08;61.14
35443;BME280;21561;55.654;37.592;2022-11-15T06:01:47;99782.31;;;-2.01;61.23
35443;BME280;21561;55.654;37.592;2022-11-15T06:04:14;99778.31;;;-1.96;61.33
35443;BME280;21561;55.654;37.592;2022-11-15T06:06:41;99770.31;;;-1.86;61.19
35443;BME280;21561;55.654;37.592;2022-11-15T06:09:07;99781.69;;;-1.78;61.44
35443;BME280;21561;55.654;37.592;2022-11-15T06:11:34;99768.03;;;-1.80;60.64
35443;BME280;21561;55.654;37.592;2022-11-15T06:14:01;99774.72;;;-1.82;61.04
35443;BME280;21561;55.654;37.592;2022-11-15T06:16:28;99785.66;;;-1.84;61.37
35443;BME280;21561;55.654;37.592;2022-11-15T06:18:55;99776.19;;;-1.87;61.39
35443;BME280;21561;55.654;37.592;2022-11-15T06:21:22;99785.34;;;-1.90;61.29
35443;BME280;21561;55.654;37.592;2022-11-15T06:23:49;99786.09;;;-1.93;61.86
35443;BME280;21561;55.654;37.592;2022-11-15T06:26:16;99776.78;;;-1.93;62.04
35443;BME280;21561;55.654;37.592;2022-11-15T06:28:43;99778.41;;;-1.95;62.01
35443;BME280;21561;55.654;37.592;2022-11-15T06:31:11;99772.53;;;-1.94;62.21
35443;BME280;21561;55.654;37.592;2022-11-15T06:33:38;99762.38;;;-1.92;61.57
35443;BME280;21561;55.654;37.592;2022-11-15T06:36:08;99766.00;;;-1.87;61.91
35443;BME280;21561;55.654;37.592;2022-11-15T06:38:43;99753.97;;;-1.91;61.25
35443;BME280;21561;55.654;37.592;2022-11-15T06:41:12;99756.50;;;-1.91;61.60
35443;BME280;21561;55.654;37.592;2022-11-15T06:43:40;99751.56;;;-1.88;61.93
35443;BME280;21561;55.654;37.592;2022-11-15T06:46:07;99743.94;;;-1.88;61.55
35443;BME280;21561;55.654;37.592;2022-11-15T06:48:35;99759.91;;;-1.90;61.68
35443;BME280;21561;55.654;37.592;2022-11-15T06:51:03;99756.13;;;-1.81;61.86
35443;BME280;21561;55.654;37.592;2022-11-15T06:53:31;99760.59;;;-1.75;62.20
35443;BME280;21561;55.654;37.592;2022-11-15T06:56:03;99749.50;;;-1.77;61.61
35443;BME280;21561;55.654;37.592;2022-11-15T06:58:31;99748.22;;;-1.87;61.59
35443;BME280;21561;55.654;37.592;2022-11-15T07:00:59;99745.56;;;-1.90;61.52
35443;BME280;21561;55.654;37.592;2022-11-15T07:03:26;99740.47;;;-1.90;61.51
35443;BME280;21561;55.654;37.592;2022-11-15T07:05:54;99732.31;;;-1.83;61.44
35443;BME280;21561;55.654;37.592;2022-11-15T07:08:23;99735.16;;;-1.75;61.60
35443;BME280;21561;55.654;37.592;2022-11-15T07:10:50;99736.16;;;-1.71;61.53
35443;BME280;21561;55.654;37.592;2022-11-15T07:13:17;99721.16;;;-1.65;61.28
35443;BME280;21561;55.654;37.592;2022-11-15T07:15:44;99712.88;;;-1.61;61.06
35443;BME280;21561;55.654;37.592;2022-11-15T07:18:11;99706.22;;;-1.58;60.85
35443;BME280;21561;55.654;37.592;2022-11-15T07:20:37;99724.22;;;-1.53;61.09
35443;BME280;21561;55.654;37.592;2022-11-15T07:23:05;99714.97;;;-1.51;60.90
35443;BME280;21561;55.654;37.592;2022-11-15T07:25:32;99696.22;;;-1.53;60.34
35443;BME280;21561;55.654;37.592;2022-11-15T07:28:00;99713.13;;;-1.55;60.67
35443;BME280;21561;55.654;37.592;2022-11-15T07:30:28;99716.47;;;-1.56;60.80
35443;BME280;21561;55.654;37.592;2022-11-15T07:32:59;99714.88;;;-1.54;60.89
35443;BME280;21561;55.654;37.592;2022-11-15T07:35:27;99718.28;;;-1.54;61.48
35443;BME280;21561;55.654;37.592;2022-11-15T07:37:57;99718.34;;;-1.52;61.39
35443;BME280;21561;55.654;37.592;2022-11-15T07:40:25;99709.88;;;-1.51;61.24
35443;BME280;21561;55.654;37.592;2022-11-15T07:42:58;99691.47;;;-1.45;61.05
35443;BME280;21561;55.654;37.592;2022-11-15T07:45:25;99691.28;;;-1.50;61.17
35443;BME280;21561;55.654;37.592;2022-11-15T07:47:53;99687.81;;;-1.52;61.10
35443;BME280;21561;55.654;37.592;2022-11-15T07:50:20;99697.59;;;-1.61;61.63
35443;BME280;21561;55.654;37.592;2022-11-15T07:52:47;99713.53;;;-1.65;62.26
35443;BME280;21561;55.654;37.592;2022-11-15T07:55:14;99697.31;;;-1.67;61.97
35443;BME280;21561;55.654;37.592;2022-11-15T07:57:41;99703.25;;;-1.68;62.56
35443;BME280;21561;55.654;37.592;2022-11-15T08:00:08;99695.59;;;-1.68;62.11
35443;BME280;21561;55.654;37.592;2022-11-15T08:02:35;99688.91;;;-1.66;62.26
35443;BME280;21561;55.654;37.592;2022-11-15T08:05:02;99682.34;;;-1.61;62.53
35443;BME280;21561;55.654;37.592;2022-11-15T08:07:30;99685.81;;;-1.59;62.46
35443;BME280;21561;55.654;37.592;2022-11-15T08:09:57;99684.19;;;-1.57;63.02
35443;BME280;21561;55.654;37.592;2022-11-15T08:12:25;99680.09;;;-1.54;63.00
35443;BME280;21561;55.654;37.592;2022-11-15T08:14:51;99673.47;;;-1.50;61.73
35443;BME280;21561;55.654;37.592;2022-11-15T08:17:18;99666.97;;;-1.43;61.69
35443;BME280;21561;55.654;37.592;2022-11-15T08:19:45;99671.44;;;-1.38;61.75
35443;BME280;21561;55.654;37.592;2022-11-15T08:22:12;99667.81;;;-1.43;61.63
35443;BME280;21561;55.654;37.592;2022-11-15T08:24:39;99678.25;;;-1.37;61.83
35443;BME280;21561;55.654;37.592;2022-11-15T08:27:06;99669.69;;;-1.39;61.38
35443;BME280;21561;55.654;37.592;2022-11-15T08:29:43;99663.22;;;-1.30;61.44
35443;BME280;21561;55.654;37.592;2022-11-15T08:32:10;99639.88;;;-1.20;61.09
35443;BME280;21561;55.654;37.592;2022-11-15T08:34:38;99637.63;;;-1.12;61.07
35443;BME280;21561;55.654;37.592;2022-11-15T08:37:05;99640.97;;;-1.13;61.05
35443;BME280;21561;55.654;37.592;2022-11-15T08:39:32;99641.59;;;-1.19;60.82
35443;BME280;21561;55.654;37.592;2022-11-15T08:41:59;99627.81;;;-1.24;60.32
35443;BME280;21561;55.654;37.592;2022-11-15T08:44:26;99636.44;;;-1.21;60.80
35443;BME280;21561;55.654;37.592;2022-11-15T08:46:52;99640.97;;;-1.13;61.01
35443;BME280;21561;55.654;37.592;2022-11-15T08:49:19;99630.91;;;-1.10;60.75
35443;BME280;21561;55.654;37.592;2022-11-15T08:51:46;99629.59;;;-1.01;60.41
35443;BME280;21561;55.654;37.592;2022-11-15T08:54:13;99623.00;;;-0.96;60.18
35443;BME280;21561;55.654;37.592;2022-11-15T08:56:40;99617.19;;;-0.93;60.10
35443;BME280;21561;55.654;37.592;2022-11-15T08:59:07;99615.56;;;-0.91;59.87
35443;BME280;21561;55.654;37.592;2022-11-15T09:01:35;99619.09;;;-0.87;60.01
35443;BME280;21561;55.654;37.592;2022-11-15T09:04:02;99620.72;;;-0.89;59.86
35443;BME280;21561;55.654;37.592;2022-11-15T09:06:30;99628.63;;;-0.82;60.05
35443;BME280;21561;55.654;37.592;2022-11-15T09:08:57;99622.69;;;-0.82;59.93
35443;BME280;21561;55.654;37.592;2022-11-15T09:11:24;99622.44;;;-0.88;60.32
35443;BME280;21561;55.654;37.592;2022-11-15T09:13:52;99624.06;;;-0.90;60.41
35443;BME280;21561;55.654;37.592;2022-11-15T09:16:20;99615.34;;;-0.96;60.09
35443;BME280;21561;55.654;37.592;2022-11-15T09:18:46;99621.84;;;-1.04;60.55
35443;BME280;21561;55.654;37.592;2022-11-15T09:21:13;99631.78;;;-1.10;61.23
35443;BME280;21561;55.654;37.592;2022-11-15T09:23:40;99623.22;;;-1.12;61.11
35443;BME280;21561;55.654;37.592;2022-11-15T09:26:07;99624.97;;;-1.11;61.56
35443;BME280;21561;55.654;37.592;2022-11-15T09:28:34;99620.75;;;-1.10;61.92
35443;BME280;21561;55.654;37.592;2022-11-15T09:31:04;99602.72;;;-1.15;61.54
35443;BME280;21561;55.654;37.592;2022-11-15T09:33:31;99610.19;;;-1.20;61.99
35443;BME280;21561;55.654;37.592;2022-11-15T09:36:04;99618.13;;;-1.12;62.47
35443;BME280;21561;55.654;37.592;2022-11-15T09:38:32;99614.53;;;-1.17;62.72
35443;BME280;21561;55.654;37.592;2022-11-15T09:49:42;99602.13;;;-1.30;62.69
35443;BME280;21561;55.654;37.592;2022-11-15T09:52:10;99600.50;;;-1.28;63.09
35443;BME280;21561;55.654;37.592;2022-11-15T09:54:39;99594.72;;;-1.24;63.07
35443;BME280;21561;55.654;37.592;2022-11-15T09:57:50;99598.38;;;-1.18;63.17
35443;BME280;21561;55.654;37.592;2022-11-15T10:00:34;99601.69;;;-1.20;63.18
35443;BME280;21561;55.654;37.592;2022-11-15T10:03:38;99607.72;;;-1.18;63.37
35443;BME280;21561;55.654;37.592;2022-11-15T10:06:10;99585.94;;;-1.10;62.94
35443;BME280;21561;55.654;37.592;2022-11-15T10:09:22;99579.59;;;-0.99;62.48
35443;BME280;21561;55.654;37.592;2022-11-15T10:11:49;99577.38;;;-1.12;62.60
35443;BME280;21561;55.654;37.592;2022-11-15T10:14:23;99577.16;;;-1.18;62.58
35443;BME280;21561;55.654;37.592;2022-11-15T10:24:37;99570.31;;;-1.19;63.35
35443;BME280;21561;55.654;37.592;2022-11-15T10:27:14;99557.66;;;-1.18;63.05
35443;BME280;21561;55.654;37.592;2022-11-15T10:29:51;99560.25;;;-1.16;63.57
35443;BME280;21561;55.654;37.592;2022-11-15T10:32:19;99553.31;;;-1.20;63.55
35443;BME280;21561;55.654;37.592;2022-11-15T10:34:48;99550.78;;;-1.20;63.33
35443;BME280;21561;55.654;37.592;2022-11-15T10:37:30;99551.63;;;-1.20;63.57
35443;BME280;21561;55.654;37.592;2022-11-15T10:40:16;99547.41;;;-1.19;63.85
35443;BME280;21561;55.654;37.592;2022-11-15T10:42:43;99540.47;;;-1.23;63.51
35443;BME280;21561;55.654;37.592;2022-11-15T10:45:28;99534.91;;;-1.13;63.73
35443;BME280;21561;55.654;37.592;2022-11-15T10:50:43;99528.06;;;-1.14;63.83
35443;BME280;21561;55.654;37.592;2022-11-15T10:53:37;99533.16;;;-1.14;63.72
35443;BME280;21561;55.654;37.592;2022-11-15T10:56:12;99522.69;;;-1.22;64.22
35443;BME280;21561;55.654;37.592;2022-11-15T11:01:19;99515.75;;;-1.26;63.85
35443;BME280;21561;55.654;37.592;2022-11-15T11:04:06;99512.56;;;-1.20;64.18
35443;BME280;21561;55.654;37.592;2022-11-15T11:06:54;99506.78;;;-1.16;64.33
35443;BME280;21561;55.654;37.592;2022-11-15T11:09:36;99502.72;;;-1.11;64.42
35443;BME280;21561;55.654;37.592;2022-11-15T11:12:05;99498.22;;;-1.18;64.21
35443;BME280;21561;55.654;37.592;2022-11-15T11:14:36;99498.22;;;-1.18;64.40
35443;BME280;21561;55.654;37.592;2022-11-15T11:20:17;99498.44;;;-1.12;64.55
35443;BME280;21561;55.654;37.592;2022-11-15T11:37:43;99491.25;;;-1.22;64.86
35443;BME280;21561;55.654;37.592;2022-11-15T11:48:44;99489.09;;;-1.13;65.53
35443;BME280;21561;55.654;37.592;2022-11-15T11:51:19;99492.78;;;-1.27;67.29
35443;BME280;21561;55.654;37.592;2022-11-15T11:56:26;99481.56;;;-1.32;69.45
35443;BME280;21561;55.654;37.592;2022-11-15T11:58:55;99482.72;;;-1.47;71.05
35443;BME280;21561;55.654;37.592;2022-11-15T12:01:32;99477.38;;;-1.53;72.24
35443;BME280;21561;55.654;37.592;2022-11-15T12:04:21;99470.56;;;-1.54;73.56
35443;BME280;21561;55.654;37.592;2022-11-15T12:06:59;99472.19;;;-1.56;73.29
35443;BME280;21561;55.654;37.592;2022-11-15T12:17:29;99455.38;;;-1.51;73.49
35443;BME280;21561;55.654;37.592;2022-11-15T12:20:16;99449.44;;;-1.51;72.85
35443;BME280;21561;55.654;37.592;2022-11-15T12:23:39;99433.63;;;-1.67;73.54
35443;BME280;21561;55.654;37.592;2022-11-15T12:25:50;99442.81;;;-1.70;74.07
35443;BME280;21561;55.654;37.592;2022-11-15T12:31:01;99438.31;;;-1.76;75.37
35443;BME280;21561;55.654;37.592;2022-11-15T12:33:31;99439.88;;;-1.80;75.63
35443;BME280;21561;55.654;37.592;2022-11-15T12:36:03;99434.69;;;-1.83;75.90
35443;BME280;21561;55.654;37.592;2022-11-15T12:39:04;99427.84;;;-1.84;77.03
35443;BME280;21561;55.654;37.592;2022-11-15T12:41:33;99427.78;;;-1.85;77.42
35443;BME280;21561;55.654;37.592;2022-11-15T12:44:01;99420.00;;;-1.90;79.10
35443;BME280;21561;55.654;37.592;2022-11-15T12:49:07;99420.56;;;-1.97;81.06
35443;BME280;21561;55.654;37.592;2022-11-15T13:02:19;99397.47;;;-2.45;87.74
35443;BME280;21561;55.654;37.592;2022-11-15T13:04:48;99402.19;;;-2.55;88.91
35443;BME280;21561;55.654;37.592;2022-11-15T13:17:45;99370.72;;;-2.57;92.88
35443;BME280;21561;55.654;37.592;2022-11-15T13:23:07;99373.53;;;-2.51;93.39
35443;BME280;21561;55.654;37.592;2022-11-15T13:34:43;99360.00;;;-2.50;94.31
35443;BME280;21561;55.654;37.592;2022-11-15T13:37:27;99354.69;;;-2.56;95.96
35443;BME280;21561;55.654;37.592;2022-11-15T13:40:10;99353.84;;;-2.56;96.21
35443;BME280;21561;55.654;37.592;2022-11-15T13:42:42;99350.09;;;-2.64;95.47
35443;BME280;21561;55.654;37.592;2022-11-15T13:45:14;99354.31;;;-2.65;96.19
35443;BME280;21561;55.654;37.592;2022-11-15T13:47:42;99344.03;;;-2.68;96.75
35443;BME280;21561;55.654;37.592;2022-11-15T13:50:13;99339.09;;;-2.65;97.15
35443;BME280;21561;55.654;37.592;2022-11-15T13:52:41;99346.56;;;-2.68;97.62
35443;BME280;21561;55.654;37.592;2022-11-15T13:55:13;99345.78;;;-2.67;95.86
35443;BME280;21561;55.654;37.592;2022-11-15T13:57:49;99336.34;;;-2.70;95.93
35443;BME280;21561;55.654;37.592;2022-11-15T14:00:29;99337.22;;;-2.69;95.51
35443;BME280;21561;55.654;37.592;2022-11-15T14:02:57;99339.34;;;-2.80;96.26
35443;BME280;21561;55.654;37.592;2022-11-15T14:05:31;99336.72;;;-2.81;96.43
35443;BME280;21561;55.654;37.592;2022-11-15T14:08:03;99336.84;;;-2.78;97.36
35443;BME280;21561;55.654;37.592;2022-11-15T14:10:39;99331.75;;;-2.78;97.59
35443;BME280;21561;55.654;37.592;2022-11-15T14:13:26;99330.03;;;-2.79;97.55
35443;BME280;21561;55.654;37.592;2022-11-15T14:15:54;99328.19;;;-2.83;97.37
35443;BME280;21561;55.654;37.592;2022-11-15T14:18:45;99319.94;;;-2.78;98.24
35443;BME280;21561;55.654;37.592;2022-11-15T14:21:13;99329.91;;;-2.82;98.84
35443;BME280;21561;55.654;37.592;2022-11-15T14:23:40;99319.75;;;-2.82;98.84
35443;BME280;21561;55.654;37.592;2022-11-15T14:26:25;99318.13;;;-2.80;98.84
35443;BME280;21561;55.654;37.592;2022-11-15T14:28:52;99316.28;;;-2.84;99.02
35443;BME280;21561;55.654;37.592;2022-11-15T14:31:19;99318.88;;;-2.83;99.41
35443;BME280;21561;55.654;37.592;2022-11-15T14:33:47;99309.59;;;-2.82;99.87
35443;BME280;21561;55.654;37.592;2022-11-15T14:36:17;99309.72;;;-2.79;99.89
35443;BME280;21561;55.654;37.592;2022-11-15T14:38:45;99304.50;;;-2.82;100.00
35443;BME280;21561;55.654;37.592;2022-11-15T14:41:24;99313.06;;;-2.80;100.00
35443;BME280;21561;55.654;37.592;2022-11-15T14:43:52;99300.19;;;-2.85;99.32
35443;BME280;21561;55.654;37.592;2022-11-15T14:46:19;99291.63;;;-2.87;98.99
35443;BME280;21561;55.654;37.592;2022-11-15T14:48:46;99289.03;;;-2.89;99.00
35443;BME280;21561;55.654;37.592;2022-11-15T14:51:15;99285.56;;;-2.91;99.56
35443;BME280;21561;55.654;37.592;2022-11-15T14:53:43;99279.59;;;-2.91;99.84
35443;BME280;21561;55.654;37.592;2022-11-15T14:56:11;99283.06;;;-2.89;100.00
35443;BME280;21561;55.654;37.592;2022-11-15T14:58:38;99279.75;;;-2.88;99.68
35443;BME280;21561;55.654;37.592;2022-11-15T15:01:13;99275.78;;;-2.81;100.00
35443;BME280;21561;55.654;37.592;2022-11-15T15:03:40;99277.50;;;-2.80;100.00
35443;BME280;21561;55.654;37.592;2022-11-15T15:06:07;99281.22;;;-2.72;100.00
35443;BME280;21561;55.654;37.592;2022-11-15T15:08:43;99280.59;;;-2.66;100.00
35443;BME280;21561;55.654;37.592;2022-11-15T15:11:16;99273.34;;;-2.57;100.00
35443;BME280;21561;55.654;37.592;2022-11-15T15:13:45;99273.41;;;-2.56;100.00
35443;BME280;21561;55.654;37.592;2022-11-15T15:16:12;99272.47;;;-2.58;99.71
35443;BME280;21561;55.654;37.592;2022-11-15T15:18:38;99264.72;;;-2.61;99.55
35443;BME280;21561;55.654;37.592;2022-11-15T15:21:21;99265.00;;;-2.53;99.86
35443;BME280;21561;55.654;37.592;2022-11-15T15:23:49;99264.97;;;-2.55;100.00
35443;BME280;21561;55.654;37.592;2022-11-15T15:26:16;99263.38;;;-2.53;100.00
35443;BME280;21561;55.654;37.592;2022-11-15T15:28:42;99258.28;;;-2.53;99.98